Elk River, MN

4:30 PM CDT on May 30, 2015 (GMT -0500)
SE Elk River | | Change Station
CLOSE
Current Station
Personal Weather Station
Location: Elk River, MN
Elevation: 954 ft
Nearby Weather Stations
Active Advisory: Frost Advisory

Elev 954 ft 45.32 °N, 93.53 °W | Updated 27 seconds ago

Clear
Clear
62.2 °F
Feels Like 62.2 °F
N
2.7
Wind Variable Wind from SSE
Gusts 2.7 mph

Today
High -- | Low -- °F
--% Chance of Precip.
Yesterday
High -- | Low -- °F
Precip. -- in
5:30 AM 8:53 PM
Waxing Gibbous, 92% visible
Pressure 30.25 in
Visibility 10.0 miles
Clouds Clear
Dew Point 34 °F
Humidity 35%
Rainfall 0.00 in
Snow Depth Not available.
UV 7 out of 12
Pollen 8.40 out of 12
Air Quality Not available.
Flu Activity Sporadic
METAR KPNM 302114Z AUTO 04007KT 013V093 10SM CLR 17/01 A3025 RMK AO2

More Conditions Fewer Conditions

Pressure 30.25 in
Visibility 10.0 miles
Clouds Clear
Dew Point 34 °F
Humidity 35%
Rainfall 0.00 in
Snow Depth Not available.
UV 7 out of 12
Pollen 8.40 out of 12
Air Quality Not available.
Flu Activity Sporadic
METAR KPNM 302114Z AUTO 04007KT 013V093 10SM CLR 17/01 A3025 RMK AO2

More Conditions Fewer Conditions

10-Day Weather Forecast

Almanac

Astronomy

May. 30, 2015 Rise Set
Actual Time
Civil Twilight
Nautical Twilight
Astronomical Twilight
Moon
Length of Visible Light
Length of Day
Tomorrow will be .
, % of the Moon is Illuminated

Today's Extremes

State Highs State Lows

Community

WunderPhotos

Upload Photos

1,825,606 photos uploaded!

WunderBlogs® & News

Nearby

Air Quality

  Air Quality AQ Index Pollutant
Not available.

Snow Depth

Station Depth Elevation

Earthquake Activity

City Distance Mag. Time & Date
Minimum magnitude displayed is 2.5.

Coastal Water Temperatures

Place Temperature

Stations

Nearby Weather Stations

Station Location Temp. Windchill Dew Point Humidity Wind Precip. Elev Updated Type
                   
Frost Advisory
Statement as of 2:35 PM CDT on May 30, 2015

... Frost advisory in effect from 1 am to 8 am CDT Sunday...

The National Weather Service in Twin Cities/Chanhassen has issued
a frost advisory... which is in effect from 1 am to 8 am CDT
Sunday.

* Temperature... lows between 32 and 36.

* Impacts... temperature sensitive outdoor vegetation may be
damaged or killed if proper precautions are not taken.

Precautionary/preparedness actions...

A frost advisory means that frost is possible. Sensitive outdoor
plants may be killed if left uncovered.